createdAt,value
2018-12-29T00:00:16.344Z,82.59
2018-12-29T00:01:16.809Z,82.48
2018-12-29T00:02:17.343Z,82.79
2018-12-29T00:03:17.838Z,83.00
2018-12-29T00:04:18.383Z,83.00
2018-12-29T00:05:18.862Z,83.10
2018-12-29T00:06:19.354Z,83.10
2018-12-29T00:07:19.842Z,83.31
2018-12-29T00:08:20.337Z,83.00
2018-12-29T00:09:20.821Z,83.72
2018-12-29T00:10:21.310Z,83.20
2018-12-29T00:11:21.791Z,83.00
2018-12-29T00:12:22.264Z,83.20
2018-12-29T00:13:22.737Z,82.69
2018-12-29T00:14:23.207Z,83.10
2018-12-29T00:15:23.680Z,83.31
2018-12-29T00:16:24.172Z,83.20
2018-12-29T00:17:24.655Z,83.41
2018-12-29T00:18:25.140Z,83.41
2018-12-29T00:19:25.626Z,83.10
2018-12-29T00:20:26.117Z,83.20
2018-12-29T00:21:26.605Z,83.83
2018-12-29T00:22:27.079Z,83.51
2018-12-29T00:23:27.561Z,83.31
2018-12-29T00:24:28.042Z,83.17
2018-12-29T00:25:28.520Z,83.72
2018-12-29T00:26:29.002Z,83.20
2018-12-29T00:27:29.492Z,83.31
2018-12-29T00:28:29.962Z,83.20
2018-12-29T00:29:30.444Z,83.20
2018-12-29T00:30:30.919Z,82.96
2018-12-29T00:31:31.401Z,83.06
2018-12-29T00:32:31.896Z,82.96
2018-12-29T00:33:32.385Z,83.06
2018-12-29T00:34:32.865Z,82.86
2018-12-29T00:35:33.337Z,82.96
2018-12-29T00:36:33.823Z,83.20
2018-12-29T00:37:34.292Z,82.86
2018-12-29T00:38:34.763Z,83.06
2018-12-29T00:39:35.241Z,83.17
2018-12-29T00:40:35.715Z,82.96
2018-12-29T00:41:36.200Z,82.75
2018-12-29T00:42:36.676Z,83.06
2018-12-29T00:43:37.153Z,83.06
2018-12-29T00:44:37.633Z,83.27
2018-12-29T00:45:38.125Z,83.17
2018-12-29T00:46:38.601Z,83.37
2018-12-29T00:47:39.086Z,83.17
2018-12-29T00:48:39.559Z,83.17
2018-12-29T00:49:40.036Z,83.17
2018-12-29T00:50:40.516Z,82.96
2018-12-29T00:51:40.992Z,83.27
2018-12-29T00:52:41.466Z,83.27
2018-12-29T00:53:41.943Z,83.37
2018-12-29T00:54:42.426Z,83.27
2018-12-29T00:55:43.002Z,83.48
2018-12-29T00:56:43.487Z,83.06
2018-12-29T00:57:43.982Z,83.37
2018-12-29T00:58:44.562Z,83.48
2018-12-29T00:59:45.049Z,83.58
2018-12-29T01:00:45.524Z,83.48
2018-12-29T01:01:46.014Z,83.48
2018-12-29T01:02:46.495Z,83.48
2018-12-29T01:03:46.998Z,83.78
2018-12-29T01:04:47.472Z,83.89
2018-12-29T01:05:47.957Z,83.78
2018-12-29T01:06:48.421Z,83.68
2018-12-29T01:07:48.904Z,83.68
2018-12-29T01:08:49.393Z,83.99
2018-12-29T01:09:49.873Z,83.78
2018-12-29T01:10:50.357Z,84.41
2018-12-29T01:11:50.839Z,83.78
2018-12-29T01:12:51.326Z,83.89
2018-12-29T01:13:51.805Z,84.09
2018-12-29T01:14:52.352Z,84.09
2018-12-29T01:15:52.820Z,83.89
2018-12-29T01:16:53.292Z,83.78
2018-12-29T01:17:53.850Z,83.58
2018-12-29T01:18:54.242Z,83.99
2018-12-29T01:19:54.728Z,83.78
2018-12-29T01:20:55.205Z,83.78
2018-12-29T01:21:55.689Z,83.89
2018-12-29T01:22:56.179Z,83.78
2018-12-29T01:23:56.659Z,84.09
2018-12-29T01:24:57.157Z,83.78
2018-12-29T01:25:57.715Z,83.89
2018-12-29T01:26:58.196Z,83.58
2018-12-29T01:27:58.676Z,83.27
2018-12-29T01:28:59.154Z,83.54
2018-12-29T01:29:59.637Z,83.78
2018-12-29T01:31:00.217Z,83.89
2018-12-29T01:32:00.686Z,83.99
2018-12-29T01:33:01.176Z,83.89
2018-12-29T01:34:01.650Z,83.78
2018-12-29T01:35:02.129Z,83.58
2018-12-29T01:36:02.702Z,83.68
2018-12-29T01:37:03.198Z,83.23
2018-12-29T01:38:03.682Z,83.33
2018-12-29T01:39:04.183Z,83.58
2018-12-29T01:40:04.642Z,83.99
2018-12-29T01:41:05.130Z,83.99
2018-12-29T01:42:05.709Z,83.78
2018-12-29T01:43:06.187Z,83.75
2018-12-29T01:44:06.744Z,84.41
2018-12-29T01:45:07.212Z,84.09
2018-12-29T01:46:07.686Z,84.09
2018-12-29T01:47:08.169Z,84.09
2018-12-29T01:48:08.644Z,84.09
2018-12-29T01:49:09.211Z,84.61
2018-12-29T01:50:09.612Z,85.02
2018-12-29T01:51:10.099Z,85.02
2018-12-29T01:52:10.571Z,84.41
2018-12-29T01:53:11.058Z,84.09
2018-12-29T01:54:11.541Z,84.20
2018-12-29T01:55:12.103Z,84.09
2018-12-29T01:56:12.578Z,84.41
2018-12-29T01:57:13.057Z,85.13
2018-12-29T01:58:13.532Z,84.81
2018-12-29T01:59:14.014Z,84.92
2018-12-29T02:00:14.495Z,84.81
2018-12-29T02:01:14.991Z,85.33
2018-12-29T02:02:15.468Z,85.02
2018-12-29T02:03:15.959Z,84.81
2018-12-29T02:04:16.452Z,84.61
2018-12-29T02:05:16.941Z,85.13
2018-12-29T02:06:17.421Z,84.81
2018-12-29T02:07:17.890Z,85.02
2018-12-29T02:08:18.365Z,84.92
2018-12-29T02:09:18.876Z,85.02
2018-12-29T02:10:19.353Z,84.92
2018-12-29T02:11:19.840Z,85.23
2018-12-29T02:12:20.345Z,85.23
2018-12-29T02:13:20.826Z,85.13
2018-12-29T02:14:21.307Z,85.13
2018-12-29T02:15:24.834Z,84.92
2018-12-29T02:16:22.271Z,84.41
2018-12-29T02:17:22.743Z,84.72
2018-12-29T02:18:23.243Z,85.23
2018-12-29T02:19:23.712Z,85.02
2018-12-29T02:20:24.192Z,85.33
2018-12-29T02:21:24.676Z,85.64
2018-12-29T02:22:25.160Z,85.64
2018-12-29T02:23:25.635Z,84.92
2018-12-29T02:24:26.121Z,85.44
2018-12-29T02:25:26.605Z,85.33
2018-12-29T02:26:27.250Z,84.81
2018-12-29T02:27:27.680Z,85.02
2018-12-29T02:28:28.161Z,85.54
2018-12-29T02:29:28.648Z,85.33
2018-12-29T02:30:29.126Z,85.54
2018-12-29T02:31:29.596Z,85.33
2018-12-29T02:32:30.082Z,85.54
2018-12-29T02:33:30.614Z,85.85
2018-12-29T02:34:31.099Z,85.54
2018-12-29T02:35:31.652Z,85.44
2018-12-29T02:36:32.129Z,86.05
2018-12-29T02:37:32.608Z,85.75
2018-12-29T02:38:33.093Z,85.44
2018-12-29T02:39:33.580Z,85.33
2018-12-29T02:40:34.071Z,85.33
2018-12-29T02:41:34.549Z,85.44
2018-12-29T02:42:35.021Z,86.36
2018-12-29T02:43:35.507Z,85.33
2018-12-29T02:44:35.978Z,85.33
2018-12-29T02:45:36.458Z,85.64
2018-12-29T02:46:36.933Z,85.85
2018-12-29T02:47:37.413Z,85.44
2018-12-29T02:48:37.898Z,85.75
2018-12-29T02:49:38.386Z,85.64
2018-12-29T02:50:38.874Z,85.33
2018-12-29T02:51:39.331Z,85.85
2018-12-29T02:52:39.811Z,85.33
2018-12-29T02:53:40.287Z,85.54
2018-12-29T02:54:40.773Z,85.64
2018-12-29T02:55:41.319Z,85.54
2018-12-29T02:56:41.796Z,85.95
2018-12-29T02:57:42.293Z,85.75
2018-12-29T02:58:42.773Z,85.54
2018-12-29T02:59:43.259Z,85.95
2018-12-29T03:00:43.731Z,85.54
2018-12-29T03:01:44.209Z,85.44
2018-12-29T03:02:44.685Z,86.05
2018-12-29T03:03:45.169Z,85.54
2018-12-29T03:04:45.687Z,85.23
2018-12-29T03:05:46.141Z,85.44
2018-12-29T03:06:46.616Z,84.92
2018-12-29T03:07:47.138Z,85.33
2018-12-29T03:08:47.624Z,85.54
2018-12-29T03:09:48.171Z,85.39
2018-12-29T03:10:48.667Z,85.54
2018-12-29T03:11:49.143Z,85.39
2018-12-29T03:12:49.729Z,85.50
2018-12-29T03:13:50.218Z,85.64
2018-12-29T03:14:50.698Z,85.13
2018-12-29T03:15:51.181Z,84.81
2018-12-29T03:16:51.661Z,85.54
2018-12-29T03:17:52.216Z,85.54
2018-12-29T03:18:52.697Z,85.02
2018-12-29T03:19:53.182Z,85.33
2018-12-29T03:20:53.771Z,85.64
2018-12-29T03:21:54.246Z,85.44
2018-12-29T03:22:54.730Z,85.54
2018-12-29T03:23:55.215Z,84.92
2018-12-29T03:24:55.696Z,85.54
2018-12-29T03:25:56.171Z,85.50
2018-12-29T03:26:56.666Z,85.50
2018-12-29T03:27:57.135Z,85.71
2018-12-29T03:28:57.609Z,85.64
2018-12-29T03:29:58.091Z,85.54
2018-12-29T03:30:58.568Z,85.54
2018-12-29T03:31:59.052Z,85.60
2018-12-29T03:32:59.531Z,85.39
2018-12-29T03:34:00.009Z,85.02
2018-12-29T03:35:00.483Z,85.75
2018-12-29T03:36:00.972Z,86.05
2018-12-29T03:37:01.440Z,86.16
2018-12-29T03:38:01.983Z,85.64
2018-12-29T03:39:02.472Z,85.54
2018-12-29T03:40:02.953Z,85.75
2018-12-29T03:41:03.443Z,85.64
2018-12-29T03:42:03.904Z,85.85
2018-12-29T03:43:04.377Z,86.16
2018-12-29T03:44:04.960Z,85.85
2018-12-29T03:45:05.329Z,85.85
2018-12-29T03:46:05.823Z,86.26
2018-12-29T03:47:06.298Z,85.95
2018-12-29T03:48:06.772Z,86.26
2018-12-29T03:49:07.251Z,86.05
2018-12-29T03:50:07.730Z,86.16
2018-12-29T03:51:08.218Z,85.95
2018-12-29T03:52:08.696Z,85.95
2018-12-29T03:53:09.177Z,85.85
2018-12-29T03:54:09.651Z,86.16
2018-12-29T03:55:10.146Z,84.81
2018-12-29T03:56:10.620Z,86.26
2018-12-29T03:57:11.091Z,86.26
2018-12-29T03:58:11.570Z,85.75
2018-12-29T03:59:12.050Z,86.16
2018-12-29T04:00:12.529Z,85.64
2018-12-29T04:01:13.001Z,86.05
2018-12-29T04:02:13.476Z,86.16
2018-12-29T04:03:13.950Z,85.44
2018-12-29T04:04:14.427Z,86.05
2018-12-29T04:05:14.909Z,86.05
2018-12-29T04:06:15.404Z,85.95
2018-12-29T04:07:15.876Z,85.85
2018-12-29T04:08:16.356Z,85.75
2018-12-29T04:09:16.838Z,85.85
2018-12-29T04:10:17.519Z,85.95
2018-12-29T04:11:17.808Z,85.85
2018-12-29T04:12:18.271Z,85.64
2018-12-29T04:13:18.771Z,85.33
2018-12-29T04:14:19.255Z,85.85
2018-12-29T04:15:19.729Z,85.85
2018-12-29T04:16:20.209Z,85.95
2018-12-29T04:17:20.699Z,86.05
2018-12-29T04:18:21.178Z,85.75
2018-12-29T04:19:21.673Z,85.95
2018-12-29T04:20:22.147Z,86.05
2018-12-29T04:21:22.637Z,85.75
2018-12-29T04:22:23.229Z,85.95
2018-12-29T04:23:23.707Z,85.95
2018-12-29T04:24:24.198Z,85.75
2018-12-29T04:25:24.667Z,85.95
2018-12-29T04:26:25.140Z,86.05
2018-12-29T04:27:25.617Z,85.75
2018-12-29T04:28:26.104Z,85.91
2018-12-29T04:29:26.892Z,85.44
2018-12-29T04:30:27.683Z,85.85
2018-12-29T04:31:28.160Z,85.95
2018-12-29T04:32:28.646Z,86.05
2018-12-29T04:33:29.130Z,85.23
2018-12-29T04:34:29.611Z,85.85
2018-12-29T04:35:30.099Z,86.16
2018-12-29T04:36:30.578Z,85.95
2018-12-29T04:37:31.059Z,86.16
2018-12-29T04:38:31.540Z,86.05
2018-12-29T04:39:32.025Z,85.64
2018-12-29T04:40:32.513Z,85.85
2018-12-29T04:41:33.001Z,85.95
2018-12-29T04:42:33.514Z,86.36
2018-12-29T04:43:34.020Z,86.16
2018-12-29T04:44:34.495Z,85.71
2018-12-29T04:45:34.978Z,85.71
2018-12-29T04:46:35.461Z,86.02
2018-12-29T04:47:35.943Z,86.32
2018-12-29T04:48:36.425Z,85.91
2018-12-29T04:49:36.916Z,85.91
2018-12-29T04:50:37.390Z,85.71
2018-12-29T04:51:37.870Z,85.91
2018-12-29T04:52:38.350Z,85.60
2018-12-29T04:53:38.821Z,85.50
2018-12-29T04:54:39.294Z,85.81
2018-12-29T04:55:39.771Z,86.05
2018-12-29T04:56:40.262Z,85.81
2018-12-29T04:57:40.725Z,86.05
2018-12-29T04:58:41.209Z,86.02
2018-12-29T04:59:41.692Z,86.12
2018-12-29T05:00:42.176Z,85.91
2018-12-29T05:01:42.656Z,85.75
2018-12-29T05:02:43.126Z,86.02
2018-12-29T05:03:43.625Z,85.50
2018-12-29T05:04:44.103Z,85.91
2018-12-29T05:05:44.584Z,86.12
2018-12-29T05:06:45.078Z,85.81
2018-12-29T05:07:45.606Z,85.91
2018-12-29T05:08:46.091Z,85.09
2018-12-29T05:09:46.640Z,85.39
2018-12-29T05:10:47.109Z,85.75
2018-12-29T05:11:47.597Z,86.02
2018-12-29T05:12:48.084Z,85.91
2018-12-29T05:13:48.571Z,85.19
2018-12-29T05:14:49.131Z,85.81
2018-12-29T05:15:49.610Z,85.91
2018-12-29T05:16:50.094Z,85.91
2018-12-29T05:17:50.577Z,85.71
2018-12-29T05:18:51.053Z,86.12
2018-12-29T05:19:51.548Z,85.71
2018-12-29T05:20:52.037Z,85.81
2018-12-29T05:21:52.523Z,86.43
2018-12-29T05:22:53.007Z,86.12
2018-12-29T05:23:53.504Z,85.81
2018-12-29T05:24:53.976Z,85.39
2018-12-29T05:25:54.461Z,86.12
2018-12-29T05:26:54.954Z,86.02
2018-12-29T05:27:55.425Z,86.36
2018-12-29T05:28:55.909Z,85.71
2018-12-29T05:29:56.405Z,85.60
2018-12-29T05:30:56.887Z,86.02
2018-12-29T05:31:57.375Z,85.81
2018-12-29T05:32:57.861Z,85.91
2018-12-29T05:33:58.333Z,86.08
2018-12-29T05:34:58.809Z,85.67
2018-12-29T05:35:59.335Z,85.87
2018-12-29T05:36:59.813Z,85.81
2018-12-29T05:38:00.291Z,86.12
2018-12-29T05:39:00.770Z,85.91
2018-12-29T05:40:01.243Z,85.71
2018-12-29T05:41:01.728Z,85.91
2018-12-29T05:42:02.212Z,85.50
2018-12-29T05:43:02.695Z,85.87
2018-12-29T05:44:03.182Z,85.81
2018-12-29T05:45:03.743Z,86.12
2018-12-29T05:46:04.136Z,85.91
2018-12-29T05:47:04.618Z,86.32
2018-12-29T05:48:05.102Z,85.77
2018-12-29T05:49:05.582Z,85.60
2018-12-29T05:50:06.124Z,86.02
2018-12-29T05:51:06.547Z,85.81
2018-12-29T05:52:07.032Z,85.91
2018-12-29T05:53:07.498Z,86.22
2018-12-29T05:54:07.975Z,86.22
2018-12-29T05:55:08.467Z,86.32
2018-12-29T05:56:08.938Z,86.32
2018-12-29T05:57:09.430Z,86.53
2018-12-29T05:58:09.910Z,86.05
2018-12-29T05:59:10.385Z,86.53
2018-12-29T06:00:10.873Z,86.84
2018-12-29T06:01:11.353Z,86.53
2018-12-29T06:02:11.835Z,86.63
2018-12-29T06:03:12.324Z,86.74
2018-12-29T06:04:12.803Z,86.47
2018-12-29T06:05:13.287Z,86.84
2018-12-29T06:06:13.759Z,86.43
2018-12-29T06:07:14.232Z,86.22
2018-12-29T06:08:14.715Z,86.53
2018-12-29T06:09:15.216Z,86.63
2018-12-29T06:10:15.696Z,86.74
2018-12-29T06:11:16.171Z,86.32
2018-12-29T06:12:16.651Z,86.63
2018-12-29T06:13:17.169Z,87.05
2018-12-29T06:14:17.638Z,86.32
2018-12-29T06:15:19.235Z,86.43
2018-12-29T06:16:19.714Z,86.88
2018-12-29T06:17:20.210Z,86.43
2018-12-29T06:18:20.678Z,86.63
2018-12-29T06:19:21.196Z,86.94
2018-12-29T06:20:21.677Z,86.94
2018-12-29T06:21:22.170Z,86.74
2018-12-29T06:22:22.661Z,87.05
2018-12-29T06:23:23.144Z,87.05
2018-12-29T06:24:23.637Z,86.94
2018-12-29T06:25:24.117Z,87.35
2018-12-29T06:26:24.603Z,87.46
2018-12-29T06:27:25.083Z,87.46
2018-12-29T06:28:25.563Z,87.26
2018-12-29T06:29:26.053Z,87.46
2018-12-29T06:30:26.535Z,86.84
2018-12-29T06:31:27.017Z,87.05
2018-12-29T06:32:27.555Z,87.05
2018-12-29T06:33:27.986Z,87.05
2018-12-29T06:34:28.449Z,87.26
2018-12-29T06:35:28.918Z,87.15
2018-12-29T06:36:29.392Z,86.94
2018-12-29T06:37:29.867Z,87.05
2018-12-29T06:38:30.449Z,87.15
2018-12-29T06:39:30.929Z,86.94
2018-12-29T06:40:31.413Z,87.15
2018-12-29T06:41:31.885Z,87.05
2018-12-29T06:42:32.360Z,87.01
2018-12-29T06:43:32.840Z,86.94
2018-12-29T06:44:33.311Z,86.53
2018-12-29T06:45:33.782Z,87.01
2018-12-29T06:46:35.063Z,86.94
2018-12-29T06:47:34.741Z,87.05
2018-12-29T06:48:35.227Z,86.84
2018-12-29T06:49:35.749Z,87.01
2018-12-29T06:50:36.221Z,86.90
2018-12-29T06:51:36.774Z,86.60
2018-12-29T06:52:37.189Z,86.39
2018-12-29T06:53:37.670Z,86.39
2018-12-29T06:54:38.148Z,86.60
2018-12-29T06:55:38.621Z,86.29
2018-12-29T06:56:39.093Z,86.24
2018-12-29T06:57:39.575Z,86.24
2018-12-29T06:58:40.082Z,86.35
2018-12-29T06:59:40.570Z,86.80
2018-12-29T07:00:41.298Z,86.24
2018-12-29T07:01:41.686Z,86.15
2018-12-29T07:02:42.182Z,86.39
2018-12-29T07:03:42.662Z,86.04
2018-12-29T07:04:43.142Z,86.29
2018-12-29T07:05:43.621Z,86.29
2018-12-29T07:06:44.091Z,86.35
2018-12-29T07:07:44.566Z,86.15
2018-12-29T07:08:45.046Z,86.08
2018-12-29T07:09:45.515Z,86.29
2018-12-29T07:10:46.001Z,86.15
2018-12-29T07:11:46.476Z,86.04
2018-12-29T07:12:46.966Z,86.15
2018-12-29T07:13:47.447Z,85.94
2018-12-29T07:14:47.920Z,86.87
2018-12-29T07:15:48.405Z,86.15
2018-12-29T07:16:48.881Z,86.55
2018-12-29T07:17:49.374Z,86.49
2018-12-29T07:18:49.850Z,86.66
2018-12-29T07:19:50.324Z,86.70
2018-12-29T07:20:50.809Z,86.24
2018-12-29T07:21:51.294Z,86.18
2018-12-29T07:22:51.781Z,86.24
2018-12-29T07:23:52.263Z,86.18
2018-12-29T07:24:52.743Z,86.66
2018-12-29T07:25:53.236Z,86.24
2018-12-29T07:26:53.744Z,86.35
2018-12-29T07:27:54.212Z,86.04
2018-12-29T07:28:54.719Z,86.04
2018-12-29T07:29:55.251Z,86.24
2018-12-29T07:30:55.737Z,85.94
2018-12-29T07:31:56.229Z,86.76
2018-12-29T07:32:56.706Z,86.35
2018-12-29T07:33:57.201Z,86.97
2018-12-29T07:34:57.676Z,86.90
2018-12-29T07:35:58.165Z,86.76
2018-12-29T07:36:58.651Z,87.01
2018-12-29T07:37:59.137Z,86.90
2018-12-29T07:38:59.606Z,87.01
2018-12-29T07:40:00.175Z,86.76
2018-12-29T07:41:00.596Z,86.90
2018-12-29T07:42:01.092Z,86.60
2018-12-29T07:43:01.577Z,86.45
2018-12-29T07:44:02.065Z,85.94
2018-12-29T07:45:02.545Z,86.66
2018-12-29T07:46:03.027Z,86.15
2018-12-29T07:47:03.510Z,86.24
2018-12-29T07:48:04.069Z,85.73
2018-12-29T07:49:04.559Z,86.15
2018-12-29T07:50:05.045Z,86.15
2018-12-29T07:51:05.519Z,86.55
2018-12-29T07:52:06.007Z,86.24
2018-12-29T07:53:06.491Z,86.55
2018-12-29T07:54:06.969Z,86.76
2018-12-29T07:55:07.533Z,86.35
2018-12-29T07:56:07.929Z,86.31
2018-12-29T07:57:08.413Z,86.15
2018-12-29T07:58:08.886Z,86.24
2018-12-29T07:59:09.364Z,86.24
2018-12-29T08:00:09.845Z,86.31
2018-12-29T08:01:10.320Z,86.66
2018-12-29T08:02:10.799Z,86.10
2018-12-29T08:03:11.282Z,86.21
2018-12-29T08:04:11.777Z,86.21
2018-12-29T08:05:12.245Z,86.00
2018-12-29T08:06:12.732Z,86.41
2018-12-29T08:07:13.221Z,86.00
2018-12-29T08:08:13.709Z,86.21
2018-12-29T08:09:14.184Z,86.00
2018-12-29T08:10:14.674Z,85.49
2018-12-29T08:11:15.138Z,85.79
2018-12-29T08:12:15.639Z,86.00
2018-12-29T08:13:16.111Z,85.96
2018-12-29T08:14:16.571Z,85.79
2018-12-29T08:15:17.070Z,86.10
2018-12-29T08:16:17.549Z,85.79
2018-12-29T08:17:18.032Z,86.06
2018-12-29T08:18:18.490Z,86.31
2018-12-29T08:19:18.976Z,86.31
2018-12-29T08:20:19.460Z,86.00
2018-12-29T08:21:19.931Z,86.10
2018-12-29T08:22:20.409Z,86.52
2018-12-29T08:23:20.892Z,86.41
2018-12-29T08:24:21.366Z,86.52
2018-12-29T08:25:21.838Z,86.52
2018-12-29T08:26:22.460Z,86.21
2018-12-29T08:27:22.932Z,86.16
2018-12-29T08:28:23.418Z,86.16
2018-12-29T08:29:24.013Z,86.41
2018-12-29T08:30:24.495Z,85.14
2018-12-29T08:31:25.050Z,85.75
2018-12-29T08:32:25.537Z,85.86
2018-12-29T08:33:26.088Z,85.75
2018-12-29T08:34:26.566Z,85.86
2018-12-29T08:35:27.127Z,85.65
2018-12-29T08:36:27.611Z,85.86
2018-12-29T08:37:28.266Z,84.83
2018-12-29T08:38:28.753Z,85.34
2018-12-29T08:39:29.304Z,84.93
2018-12-29T08:40:29.792Z,85.44
2018-12-29T08:41:30.442Z,85.14
2018-12-29T08:42:30.923Z,85.96
2018-12-29T08:43:31.483Z,85.96
2018-12-29T08:44:31.972Z,85.65
2018-12-29T08:45:32.440Z,85.75
2018-12-29T08:46:32.908Z,85.14
2018-12-29T08:47:33.390Z,85.34
2018-12-29T08:48:33.968Z,84.83
2018-12-29T08:49:34.452Z,85.14
2018-12-29T08:50:35.111Z,85.55
2018-12-29T08:51:35.597Z,85.51
2018-12-29T08:52:36.274Z,85.30
2018-12-29T08:53:36.739Z,84.89
2018-12-29T08:54:37.387Z,85.30
2018-12-29T08:55:37.878Z,85.41
2018-12-29T08:56:38.532Z,85.41
2018-12-29T08:57:39.015Z,85.10
2018-12-29T08:58:39.675Z,84.69
2018-12-29T08:59:40.159Z,85.20
2018-12-29T09:00:40.823Z,85.30
2018-12-29T09:01:41.296Z,84.99
2018-12-29T09:02:41.952Z,85.71
2018-12-29T09:03:42.437Z,85.71
2018-12-29T09:04:43.098Z,85.30
2018-12-29T09:05:43.579Z,85.10
2018-12-29T09:06:44.131Z,85.20
2018-12-29T09:07:44.608Z,85.41
2018-12-29T09:08:45.171Z,84.79
2018-12-29T09:09:45.654Z,85.51
2018-12-29T09:10:46.207Z,85.41
2018-12-29T09:11:46.684Z,85.10
2018-12-29T09:12:47.346Z,85.30
2018-12-29T09:13:47.827Z,85.41
2018-12-29T09:14:48.489Z,85.06
2018-12-29T09:15:48.982Z,85.92
2018-12-29T09:16:49.653Z,85.51
2018-12-29T09:17:50.117Z,85.82
2018-12-29T09:18:50.750Z,86.02
2018-12-29T09:19:51.233Z,85.16
2018-12-29T09:20:51.889Z,84.79
2018-12-29T09:21:52.351Z,84.89
2018-12-29T09:22:52.903Z,84.95
2018-12-29T09:23:53.388Z,84.79
2018-12-29T09:24:53.937Z,84.69
2018-12-29T09:25:54.414Z,85.06
2018-12-29T09:26:54.986Z,84.85
2018-12-29T09:27:55.464Z,84.64
2018-12-29T09:28:56.019Z,84.75
2018-12-29T09:29:56.503Z,84.75
2018-12-29T09:30:57.051Z,84.85
2018-12-29T09:31:57.535Z,85.16
2018-12-29T09:32:58.093Z,85.36
2018-12-29T09:33:58.578Z,85.06
2018-12-29T09:34:59.122Z,85.26
2018-12-29T09:35:59.601Z,84.85
2018-12-29T09:37:00.164Z,84.75
2018-12-29T09:38:00.658Z,84.85
2018-12-29T09:39:01.219Z,85.26
2018-12-29T09:40:01.682Z,85.16
2018-12-29T09:41:02.170Z,84.54
2018-12-29T09:42:02.647Z,85.16
2018-12-29T09:43:03.258Z,85.36
2018-12-29T09:44:03.738Z,85.26
2018-12-29T09:45:04.306Z,85.36
2018-12-29T09:46:04.770Z,84.95
2018-12-29T09:47:05.341Z,85.16
2018-12-29T09:48:05.825Z,85.33
2018-12-29T09:49:07.394Z,85.12
2018-12-29T09:50:07.886Z,85.22
2018-12-29T09:51:08.433Z,84.91
2018-12-29T09:52:08.925Z,84.50
2018-12-29T09:53:09.476Z,84.81
2018-12-29T09:54:09.947Z,84.40
2018-12-29T09:55:10.521Z,84.81
2018-12-29T09:56:11.001Z,84.81
2018-12-29T09:57:11.549Z,84.61
2018-12-29T09:58:12.038Z,84.50
2018-12-29T09:59:12.580Z,84.50
2018-12-29T10:00:13.075Z,84.40
2018-12-29T10:01:13.626Z,84.77
2018-12-29T10:02:14.118Z,84.67
2018-12-29T10:03:14.659Z,84.77
2018-12-29T10:04:15.145Z,84.47
2018-12-29T10:05:17.744Z,84.88
2018-12-29T10:06:18.239Z,84.67
2018-12-29T10:07:18.723Z,84.67
2018-12-29T10:08:19.309Z,84.67
2018-12-29T10:09:19.810Z,84.67
2018-12-29T10:10:20.308Z,84.56
2018-12-29T10:11:20.863Z,84.67
2018-12-29T10:12:21.341Z,84.67
2018-12-29T10:13:21.832Z,84.47
2018-12-29T10:14:22.317Z,84.47
2018-12-29T10:15:22.946Z,85.33
2018-12-29T10:16:23.438Z,84.61
2018-12-29T10:17:27.002Z,85.02
2018-12-29T10:18:24.454Z,85.28
2018-12-29T10:19:25.034Z,85.39
2018-12-29T10:20:25.495Z,85.18
2018-12-29T10:21:26.050Z,84.77
2018-12-29T10:22:26.543Z,84.77
2018-12-29T10:23:27.092Z,84.36
2018-12-29T10:24:27.569Z,84.98
2018-12-29T10:25:28.126Z,84.56
2018-12-29T10:26:28.613Z,84.56
2018-12-29T10:27:29.167Z,84.67
2018-12-29T10:28:29.643Z,84.36
2018-12-29T10:29:30.210Z,84.47
2018-12-29T10:30:30.675Z,85.08
2018-12-29T10:31:31.242Z,84.98
2018-12-29T10:32:31.733Z,85.18
2018-12-29T10:33:32.271Z,84.77
2018-12-29T10:34:32.751Z,84.67
2018-12-29T10:35:33.309Z,84.47
2018-12-29T10:36:33.806Z,84.47
2018-12-29T10:37:34.354Z,84.63
2018-12-29T10:38:34.841Z,84.63
2018-12-29T10:39:35.397Z,84.63
2018-12-29T10:40:35.879Z,84.63
2018-12-29T10:41:36.359Z,84.84
2018-12-29T10:42:36.840Z,84.74
2018-12-29T10:43:37.463Z,84.74
2018-12-29T10:44:37.941Z,84.22
2018-12-29T10:45:38.514Z,84.63
2018-12-29T10:46:38.982Z,84.32
2018-12-29T10:47:39.537Z,84.32
2018-12-29T10:48:40.025Z,84.59
2018-12-29T10:49:40.688Z,84.39
2018-12-29T10:50:41.151Z,84.69
2018-12-29T10:51:41.722Z,83.36
2018-12-29T10:52:42.204Z,83.77
2018-12-29T10:53:42.766Z,84.39
2018-12-29T10:54:43.241Z,84.32
2018-12-29T10:55:43.800Z,84.39
2018-12-29T10:56:44.281Z,84.18
2018-12-29T10:57:44.934Z,84.74
2018-12-29T10:58:45.400Z,84.59
2018-12-29T10:59:45.976Z,83.81
2018-12-29T11:00:46.454Z,84.18
2018-12-29T11:01:47.010Z,84.32
2018-12-29T11:02:47.501Z,84.53
2018-12-29T11:03:49.130Z,84.28
2018-12-29T11:04:49.556Z,84.32
2018-12-29T11:05:50.221Z,84.32
2018-12-29T11:06:50.693Z,84.84
2018-12-29T11:07:51.359Z,84.49
2018-12-29T11:08:51.823Z,84.39
2018-12-29T11:09:52.379Z,83.77
2018-12-29T11:10:52.863Z,84.08
2018-12-29T11:11:53.427Z,84.49
2018-12-29T11:12:53.899Z,84.49
2018-12-29T11:13:54.463Z,83.46
2018-12-29T11:14:54.931Z,83.36
2018-12-29T11:15:56.514Z,83.56
2018-12-29T11:16:57.009Z,83.56
2018-12-29T11:17:57.503Z,83.36
2018-12-29T11:18:57.989Z,83.46
2018-12-29T11:19:58.544Z,83.36
2018-12-29T11:20:59.010Z,83.22
2018-12-29T11:21:59.572Z,83.01
2018-12-29T11:23:00.062Z,83.26
2018-12-29T11:24:00.542Z,82.81
2018-12-29T11:25:01.020Z,83.22
2018-12-29T11:26:01.559Z,83.26
2018-12-29T11:27:02.033Z,83.56
2018-12-29T11:28:02.583Z,83.46
2018-12-29T11:29:03.060Z,83.32
2018-12-29T11:30:03.632Z,83.63
2018-12-29T11:31:04.105Z,83.22
2018-12-29T11:32:04.722Z,83.22
2018-12-29T11:33:05.205Z,83.01
2018-12-29T11:34:05.871Z,82.77
2018-12-29T11:35:06.352Z,83.07
2018-12-29T11:36:07.011Z,82.67
2018-12-29T11:37:07.490Z,82.26
2018-12-29T11:38:08.147Z,82.50
2018-12-29T11:39:08.622Z,82.50
2018-12-29T11:40:09.283Z,82.60
2018-12-29T11:41:09.900Z,82.60
2018-12-29T11:42:10.622Z,82.91
2018-12-29T11:43:11.019Z,83.01
2018-12-29T11:44:11.667Z,82.67
2018-12-29T11:45:12.162Z,82.77
2018-12-29T11:46:12.798Z,82.70
2018-12-29T11:47:13.282Z,82.77
2018-12-29T11:48:13.942Z,82.50
2018-12-29T11:49:18.019Z,82.36
2018-12-29T11:50:15.999Z,81.95
2018-12-29T11:51:16.478Z,82.05
2018-12-29T11:52:17.146Z,81.95
2018-12-29T11:53:17.628Z,81.95
2018-12-29T11:54:18.297Z,81.74
2018-12-29T11:55:18.773Z,82.05
2018-12-29T11:56:19.418Z,81.95
2018-12-29T11:57:19.909Z,82.32
2018-12-29T11:58:20.456Z,82.26
2018-12-29T11:59:20.945Z,82.12
2018-12-29T12:00:21.602Z,80.68
2018-12-29T12:01:22.087Z,81.74
2018-12-29T12:02:24.613Z,81.74
2018-12-29T12:03:23.209Z,82.15
2018-12-29T12:04:23.778Z,82.36
2018-12-29T12:05:24.253Z,82.26
2018-12-29T12:06:24.839Z,82.36
2018-12-29T12:07:25.550Z,82.01
2018-12-29T12:08:26.061Z,81.95
2018-12-29T12:09:26.560Z,81.85
2018-12-29T12:10:27.051Z,81.85
2018-12-29T12:11:27.505Z,81.95
2018-12-29T12:12:27.984Z,81.85
2018-12-29T12:13:28.474Z,81.85
2018-12-29T12:14:28.966Z,82.36
2018-12-29T12:15:29.447Z,82.36
2018-12-29T12:16:29.932Z,82.36
2018-12-29T12:17:30.419Z,81.95
2018-12-29T12:18:30.903Z,81.95
2018-12-29T12:19:31.390Z,82.26
2018-12-29T12:20:31.851Z,81.50
2018-12-29T12:21:32.340Z,82.26
2018-12-29T12:22:32.812Z,82.15
2018-12-29T12:23:33.285Z,82.22
2018-12-29T12:24:33.814Z,82.15
2018-12-29T12:25:34.254Z,81.91
2018-12-29T12:26:34.733Z,81.20
2018-12-29T12:27:35.202Z,81.40
2018-12-29T12:28:35.680Z,81.09
2018-12-29T12:29:36.227Z,80.78
2018-12-29T12:30:36.672Z,80.78
2018-12-29T12:31:38.870Z,81.09
2018-12-29T12:32:37.612Z,81.20
2018-12-29T12:33:38.093Z,80.68
2018-12-29T12:34:38.570Z,80.37
2018-12-29T12:35:39.248Z,80.58
2018-12-29T12:36:39.720Z,81.09
2018-12-29T12:37:40.334Z,81.09
2018-12-29T12:38:40.832Z,81.20
2018-12-29T12:39:41.483Z,80.27
2018-12-29T12:40:41.991Z,80.68
2018-12-29T12:41:42.515Z,80.78
2018-12-29T12:42:43.021Z,80.68
2018-12-29T12:43:43.557Z,80.58
2018-12-29T12:44:44.143Z,80.54
2018-12-29T12:45:46.736Z,80.58
2018-12-29T12:46:47.241Z,80.44
2018-12-29T12:47:47.777Z,80.78
2018-12-29T12:48:48.249Z,80.78
2018-12-29T12:49:49.961Z,80.64
2018-12-29T12:50:50.418Z,80.54
2018-12-29T12:51:50.979Z,80.47
2018-12-29T12:52:51.498Z,80.54
2018-12-29T12:53:52.015Z,80.58
2018-12-29T12:54:52.517Z,79.82
2018-12-29T12:55:53.052Z,80.13
2018-12-29T12:56:53.561Z,80.88
2018-12-29T12:57:54.091Z,80.54
2018-12-29T12:58:54.582Z,80.58